createdAt,value
2019-01-02T00:00:28.260Z,99.90
2019-01-02T00:02:56.816Z,99.90
2019-01-02T00:05:25.416Z,99.90
2019-01-02T00:07:53.976Z,99.90
2019-01-02T00:10:22.915Z,99.90
2019-01-02T00:12:51.472Z,99.90
2019-01-02T00:15:20.764Z,99.90
2019-01-02T00:17:49.406Z,99.90
2019-01-02T00:20:18.238Z,99.90
2019-01-02T00:22:46.792Z,99.90
2019-01-02T00:25:15.316Z,99.90
2019-01-02T00:27:43.861Z,99.90
2019-01-02T00:30:12.421Z,99.90
2019-01-02T00:32:41.253Z,99.90
2019-01-02T00:35:10.149Z,99.90
2019-01-02T00:37:39.244Z,99.90
2019-01-02T00:40:11.032Z,99.90
2019-01-02T00:42:40.028Z,99.90
2019-01-02T00:45:09.507Z,99.90
2019-01-02T00:47:38.435Z,99.90
2019-01-02T00:50:10.323Z,99.90
2019-01-02T00:52:39.452Z,99.90
2019-01-02T00:55:08.544Z,99.90
2019-01-02T00:57:37.377Z,99.90
2019-01-02T01:00:09.052Z,99.90
2019-01-02T01:02:37.879Z,99.90
2019-01-02T01:05:06.773Z,99.90
2019-01-02T01:07:35.868Z,99.90
2019-01-02T01:10:07.277Z,99.90
2019-01-02T01:12:36.204Z,99.90
2019-01-02T01:15:07.099Z,99.90
2019-01-02T01:17:36.100Z,99.90
2019-01-02T01:20:10.915Z,99.90
2019-01-02T01:22:39.700Z,99.90
2019-01-02T01:25:08.548Z,99.90
2019-01-02T01:27:37.148Z,99.90
2019-01-02T01:30:09.132Z,99.90
2019-01-02T01:32:37.692Z,99.90
2019-01-02T01:35:09.369Z,99.90
2019-01-02T01:37:39.460Z,99.90
2019-01-02T01:40:11.357Z,99.90
2019-01-02T01:42:39.912Z,99.90
2019-01-02T01:45:10.586Z,99.90
2019-01-02T01:47:39.637Z,99.90
2019-01-02T01:50:10.203Z,99.90
2019-01-02T01:52:38.751Z,99.90
2019-01-02T01:55:08.037Z,99.90
2019-01-02T01:57:36.988Z,99.90
2019-01-02T02:00:08.598Z,99.90
2019-01-02T02:02:37.557Z,99.90
2019-01-02T02:05:08.525Z,99.90
2019-01-02T02:07:37.076Z,99.90
2019-01-02T02:10:11.680Z,99.90
2019-01-02T02:12:40.239Z,99.90
2019-01-02T02:15:10.600Z,99.90
2019-01-02T02:17:41.119Z,99.90
2019-01-02T02:20:11.912Z,99.90
2019-01-02T02:22:40.442Z,99.90
2019-01-02T02:25:16.966Z,99.90
2019-01-02T02:27:45.844Z,99.90
2019-01-02T02:30:16.100Z,99.90
2019-01-02T02:32:45.459Z,99.90
2019-01-02T02:35:14.589Z,99.90
2019-01-02T02:37:43.188Z,99.90
2019-01-02T02:40:14.193Z,99.90
2019-01-02T02:42:42.793Z,99.90
2019-01-02T02:45:13.244Z,99.90
2019-01-02T02:47:42.296Z,99.90
2019-01-02T02:50:13.492Z,99.90
2019-01-02T02:52:42.091Z,99.90
2019-01-02T02:55:13.384Z,99.90
2019-01-02T02:57:41.916Z,99.90
2019-01-02T03:00:12.810Z,99.90
2019-01-02T03:02:41.507Z,99.90
2019-01-02T03:05:12.206Z,99.90
2019-01-02T03:07:41.131Z,99.90
2019-01-02T03:10:12.632Z,99.90
2019-01-02T03:12:41.532Z,99.90
2019-01-02T03:15:11.621Z,99.90
2019-01-02T03:17:40.312Z,99.90
2019-01-02T03:20:11.496Z,99.90
2019-01-02T03:22:40.796Z,99.90
2019-01-02T03:25:11.468Z,99.90
2019-01-02T03:27:40.320Z,99.90
2019-01-02T03:30:12.355Z,99.90
2019-01-02T03:32:41.113Z,99.90
2019-01-02T03:35:09.952Z,99.90
2019-01-02T03:37:38.510Z,99.90
2019-01-02T03:40:09.908Z,99.90
2019-01-02T03:42:38.439Z,99.90
2019-01-02T03:45:10.028Z,99.90
2019-01-02T03:47:38.553Z,99.90
2019-01-02T03:50:10.343Z,99.90
2019-01-02T03:52:38.797Z,99.90
2019-01-02T03:55:09.412Z,99.90
2019-01-02T03:57:37.961Z,99.90
2019-01-02T04:00:12.448Z,99.90
2019-01-02T04:02:40.933Z,99.90
2019-01-02T04:05:11.923Z,99.90
2019-01-02T04:07:42.092Z,99.90
2019-01-02T04:10:13.189Z,99.90
2019-01-02T04:12:41.669Z,99.90
2019-01-02T04:15:10.124Z,99.90
2019-01-02T04:17:38.608Z,99.90
2019-01-02T04:20:08.447Z,99.90
2019-01-02T04:22:37.001Z,99.90
2019-01-02T04:25:07.563Z,99.90
2019-01-02T04:27:36.054Z,99.90
2019-01-02T04:30:14.117Z,99.90
2019-01-02T04:32:42.669Z,99.90
2019-01-02T04:35:11.119Z,99.90
2019-01-02T04:37:39.671Z,99.90
2019-01-02T04:40:12.821Z,99.90
2019-01-02T04:42:41.446Z,99.90
2019-01-02T04:45:11.124Z,99.90
2019-01-02T04:47:39.978Z,99.90
2019-01-02T04:50:11.048Z,99.90
2019-01-02T04:52:39.529Z,99.90
2019-01-02T04:55:08.056Z,99.90
2019-01-02T04:57:36.613Z,99.90
2019-01-02T05:00:13.578Z,99.90
2019-01-02T05:02:42.132Z,99.90
2019-01-02T05:05:10.592Z,99.90
2019-01-02T05:07:39.072Z,99.90
2019-01-02T05:10:10.063Z,99.90
2019-01-02T05:12:38.556Z,99.90
2019-01-02T05:15:09.321Z,99.90
2019-01-02T05:17:37.871Z,99.90
2019-01-02T05:20:09.337Z,99.90
2019-01-02T05:22:37.819Z,99.90
2019-01-02T05:25:07.712Z,99.90
2019-01-02T05:27:36.192Z,99.90
2019-01-02T05:30:13.200Z,99.90
2019-01-02T05:32:41.755Z,99.90
2019-01-02T05:35:10.478Z,99.90
2019-01-02T05:37:39.097Z,99.90
2019-01-02T05:40:13.348Z,99.90
2019-01-02T05:42:41.830Z,99.90
2019-01-02T05:45:10.660Z,99.90
2019-01-02T05:47:39.143Z,99.90
2019-01-02T05:50:09.280Z,99.90
2019-01-02T05:52:37.867Z,99.90
2019-01-02T05:55:07.364Z,99.90
2019-01-02T05:57:35.926Z,99.90
2019-01-02T06:00:07.465Z,99.90
2019-01-02T06:02:36.024Z,99.90
2019-01-02T06:05:05.817Z,99.90
2019-01-02T06:07:34.324Z,99.90
2019-01-02T06:10:03.152Z,99.90
2019-01-02T06:12:31.704Z,99.90
2019-01-02T06:15:00.315Z,99.90
2019-01-02T06:17:28.831Z,99.90
2019-01-02T06:19:57.325Z,99.90
2019-01-02T06:22:25.796Z,99.90
2019-01-02T06:24:54.276Z,99.90
2019-01-02T06:27:22.809Z,99.90
2019-01-02T06:29:51.364Z,99.90
2019-01-02T06:32:20.410Z,99.90
2019-01-02T06:34:48.889Z,99.90
2019-01-02T06:37:17.419Z,99.90
2019-01-02T06:39:45.902Z,99.90
2019-01-02T06:42:14.747Z,99.90
2019-01-02T06:44:43.305Z,99.90
2019-01-02T06:47:12.118Z,99.90
2019-01-02T06:49:40.601Z,99.90
2019-01-02T06:52:09.070Z,99.90
2019-01-02T06:54:37.625Z,99.90
2019-01-02T06:57:06.160Z,99.90
2019-01-02T06:59:35.140Z,99.90
2019-01-02T07:02:03.779Z,99.90
2019-01-02T07:04:32.367Z,99.90
2019-01-02T07:07:00.855Z,99.90
2019-01-02T07:09:29.409Z,99.90
2019-01-02T07:11:57.864Z,99.90
2019-01-02T07:14:26.391Z,99.90
2019-01-02T07:16:55.272Z,99.90
2019-01-02T07:19:23.761Z,99.90
2019-01-02T07:21:52.728Z,99.90
2019-01-02T07:24:21.588Z,99.90
2019-01-02T07:26:50.656Z,99.90
2019-01-02T07:29:19.119Z,99.90
2019-01-02T07:31:47.605Z,99.90
2019-01-02T07:34:18.265Z,99.90
2019-01-02T07:37:01.715Z,99.90
2019-01-02T07:39:48.412Z,99.90
2019-01-02T07:42:50.703Z,99.90
2019-01-02T07:45:34.333Z,99.90
2019-01-02T07:48:23.833Z,99.90
2019-01-02T07:51:00.355Z,99.90
2019-01-02T07:53:37.948Z,99.90
2019-01-02T07:56:24.161Z,99.90
2019-01-02T07:59:21.247Z,99.90
2019-01-02T08:02:15.383Z,99.90
2019-01-02T08:04:49.925Z,99.90
2019-01-02T08:07:38.911Z,99.90
2019-01-02T08:10:10.596Z,99.90
2019-01-02T08:12:45.064Z,99.90
2019-01-02T08:15:31.400Z,99.90
2019-01-02T08:18:20.636Z,99.90
2019-01-02T08:21:16.580Z,99.90
2019-01-02T08:24:07.492Z,99.90
2019-01-02T08:26:53.979Z,99.90
2019-01-02T08:29:37.344Z,99.90
2019-01-02T08:32:14.884Z,99.90
2019-01-02T08:35:02.746Z,99.90
2019-01-02T08:37:37.205Z,99.90
2019-01-02T08:40:26.721Z,99.90
2019-01-02T08:43:07.085Z,99.90
2019-01-02T08:45:41.713Z,99.90
2019-01-02T08:48:25.262Z,99.90
2019-01-02T08:51:13.329Z,99.90
2019-01-02T08:53:47.896Z,99.90
2019-01-02T08:56:34.603Z,99.90
2019-01-02T08:59:25.241Z,99.90
2019-01-02T09:02:05.537Z,99.90
2019-01-02T09:04:40.132Z,99.90
2019-01-02T09:07:14.853Z,99.90
2019-01-02T09:10:16.371Z,99.90
2019-01-02T09:12:54.080Z,99.90
2019-01-02T09:15:37.820Z,99.90
2019-01-02T09:18:18.386Z,99.90
2019-01-02T09:20:50.072Z,99.90
2019-01-02T09:23:55.388Z,99.90
2019-01-02T09:26:43.496Z,99.90
2019-01-02T09:29:20.748Z,99.90
2019-01-02T09:32:03.980Z,99.90
2019-01-02T09:34:44.420Z,99.90
2019-01-02T09:37:44.705Z,99.90
2019-01-02T09:40:16.618Z,99.90
2019-01-02T09:43:07.844Z,99.90
2019-01-02T09:46:08.544Z,99.90
2019-01-02T09:48:46.160Z,99.90
2019-01-02T09:51:51.192Z,99.90
2019-01-02T09:54:51.276Z,99.90
2019-01-02T09:57:44.288Z,99.90
2019-01-02T10:00:37.014Z,99.90
2019-01-02T10:03:14.142Z,99.90
2019-01-02T10:06:19.474Z,99.90
2019-01-02T10:09:03.284Z,99.90
2019-01-02T10:11:43.772Z,99.90
2019-01-02T10:14:33.288Z,99.90
2019-01-02T10:17:16.596Z,99.90
2019-01-02T10:20:02.976Z,99.90
2019-01-02T10:22:53.909Z,99.90
2019-01-02T10:25:31.184Z,99.90
2019-01-02T10:28:36.372Z,99.90
2019-01-02T10:31:34.612Z,99.90
2019-01-02T10:34:11.983Z,99.90
2019-01-02T10:37:17.193Z,99.90
2019-01-02T10:40:21.943Z,99.90
2019-01-02T10:43:08.189Z,99.90
2019-01-02T10:46:03.672Z,99.90
2019-01-02T10:48:53.517Z,99.90
2019-01-02T10:51:44.500Z,99.90
2019-01-02T10:54:24.916Z,99.90
2019-01-02T10:57:01.999Z,99.90
2019-01-02T10:59:46.302Z,99.90
2019-01-02T11:02:18.011Z,99.90
2019-01-02T11:04:52.187Z,99.90
2019-01-02T11:07:41.656Z,99.90
2019-01-02T11:10:21.868Z,99.90
2019-01-02T11:13:10.273Z,99.90
2019-01-02T11:15:44.527Z,99.90
2019-01-02T11:18:24.708Z,99.90
2019-01-02T11:21:25.124Z,99.90
2019-01-02T11:24:29.560Z,99.90
2019-01-02T11:27:20.821Z,99.90
2019-01-02T11:30:14.184Z,99.90
2019-01-02T11:32:45.712Z,99.90
2019-01-02T11:35:33.960Z,99.90
2019-01-02T11:38:23.552Z,99.90
2019-01-02T11:41:10.260Z,99.90
2019-01-02T11:44:04.612Z,99.90
2019-01-02T11:46:33.108Z,99.90
2019-01-02T11:49:01.592Z,99.90
2019-01-02T11:51:30.129Z,99.90
2019-01-02T11:53:58.696Z,99.90
2019-01-02T11:56:27.476Z,99.90
2019-01-02T11:58:55.985Z,99.90
2019-01-02T12:01:24.463Z,99.90
2019-01-02T12:03:52.945Z,99.90
2019-01-02T12:06:21.399Z,99.90
2019-01-02T12:08:49.923Z,99.90
2019-01-02T12:11:18.648Z,99.90
2019-01-02T12:13:47.103Z,99.90
2019-01-02T12:16:15.580Z,99.90
2019-01-02T12:18:44.316Z,99.90
2019-01-02T12:21:12.873Z,99.90
2019-01-02T12:23:41.688Z,99.90
2019-01-02T12:26:10.155Z,99.90
2019-01-02T12:28:38.712Z,99.90
2019-01-02T12:31:07.170Z,99.90
2019-01-02T12:33:35.648Z,99.90
2019-01-02T12:36:04.245Z,99.90
2019-01-02T12:38:32.719Z,99.90
2019-01-02T12:41:01.465Z,99.90
2019-01-02T12:43:33.081Z,99.90
2019-01-02T12:46:01.809Z,99.90
2019-01-02T12:48:30.333Z,99.90
2019-01-02T12:50:58.931Z,99.90
2019-01-02T12:53:27.383Z,99.90
2019-01-02T12:55:56.164Z,99.90
2019-01-02T12:58:24.700Z,99.90
2019-01-02T13:00:56.312Z,99.90
2019-01-02T13:03:40.442Z,99.90
2019-01-02T13:06:24.131Z,99.90
2019-01-02T13:09:19.655Z,99.90
2019-01-02T13:12:03.344Z,99.90
2019-01-02T13:14:49.912Z,99.90
2019-01-02T13:17:39.396Z,99.90
2019-01-02T13:20:19.804Z,99.80
2019-01-02T13:23:23.302Z,99.30
2019-01-02T13:25:54.948Z,99.80
2019-01-02T13:28:51.996Z,96.50
2019-01-02T13:31:50.620Z,94.80
2019-01-02T13:34:34.557Z,94.50
2019-01-02T13:37:15.116Z,92.20
2019-01-02T13:39:46.671Z,93.70
2019-01-02T13:42:18.305Z,93.80
2019-01-02T13:44:52.780Z,94.40
2019-01-02T13:47:45.854Z,94.20
2019-01-02T13:50:38.624Z,93.10
2019-01-02T13:53:07.144Z,93.70
2019-01-02T13:55:35.624Z,92.40
2019-01-02T13:58:04.078Z,91.30
2019-01-02T14:00:32.556Z,91.60
2019-01-02T14:03:01.088Z,87.00
2019-01-02T14:05:30.153Z,89.20
2019-01-02T14:07:58.632Z,85.90
2019-01-02T14:10:27.097Z,85.80
2019-01-02T14:12:55.639Z,89.00
2019-01-02T14:15:24.164Z,86.80
2019-01-02T14:17:52.639Z,89.90
2019-01-02T14:20:21.095Z,89.50
2019-01-02T14:22:49.613Z,89.40
2019-01-02T14:25:18.470Z,86.90
2019-01-02T14:27:46.925Z,84.90
2019-01-02T14:30:15.475Z,84.50
2019-01-02T14:32:43.929Z,80.10
2019-01-02T14:35:12.409Z,74.00
2019-01-02T14:37:40.860Z,72.70
2019-01-02T14:40:09.417Z,72.00
2019-01-02T14:42:38.145Z,75.80
2019-01-02T14:45:07.140Z,76.80
2019-01-02T14:47:35.597Z,76.60
2019-01-02T14:50:05.992Z,74.50
2019-01-02T14:52:34.448Z,76.10
2019-01-02T14:55:02.909Z,77.10
2019-01-02T14:57:31.384Z,77.20
2019-01-02T14:59:59.832Z,79.30
2019-01-02T15:02:28.308Z,79.80
2019-01-02T15:04:56.760Z,80.90
2019-01-02T15:07:25.212Z,80.10
2019-01-02T15:09:53.767Z,80.30
2019-01-02T15:12:22.229Z,81.10
2019-01-02T15:14:50.723Z,82.20
2019-01-02T15:17:19.545Z,82.80
2019-01-02T15:19:48.026Z,82.30
2019-01-02T15:22:16.558Z,84.00
2019-01-02T15:24:49.443Z,84.00
2019-01-02T15:27:15.211Z,84.80
2019-01-02T15:29:43.680Z,84.30
2019-01-02T15:32:12.488Z,87.40
2019-01-02T15:34:40.945Z,88.30
2019-01-02T15:37:09.423Z,85.80
2019-01-02T15:39:37.881Z,86.70
2019-01-02T15:42:06.360Z,86.40
2019-01-02T15:44:34.812Z,86.70
2019-01-02T15:47:08.353Z,86.70
2019-01-02T15:49:33.471Z,86.90
2019-01-02T15:52:01.996Z,85.90
2019-01-02T15:54:30.547Z,85.60
2019-01-02T15:56:59.076Z,85.40
2019-01-02T15:59:27.829Z,86.70
2019-01-02T16:01:56.284Z,85.50
2019-01-02T16:04:24.736Z,83.50
2019-01-02T16:06:53.216Z,84.80
2019-01-02T16:09:21.675Z,83.40
2019-01-02T16:11:50.156Z,83.30
2019-01-02T16:14:18.617Z,82.50
2019-01-02T16:16:47.168Z,83.10
2019-01-02T16:19:15.700Z,82.50
2019-01-02T16:21:44.569Z,82.20
2019-01-02T16:24:13.020Z,81.40
2019-01-02T16:26:41.837Z,81.20
2019-01-02T16:29:10.308Z,81.30
2019-01-02T16:31:38.765Z,83.10
2019-01-02T16:34:07.244Z,83.00
2019-01-02T16:36:35.863Z,83.30
2019-01-02T16:39:07.212Z,82.70
2019-01-02T16:41:35.663Z,83.40
2019-01-02T16:44:04.231Z,84.20
2019-01-02T16:46:32.684Z,83.80
2019-01-02T16:49:01.140Z,85.70
2019-01-02T16:51:29.619Z,85.00
2019-01-02T16:53:58.144Z,85.00
2019-01-02T16:56:26.624Z,86.50
2019-01-02T16:58:55.154Z,88.00
2019-01-02T17:01:23.623Z,86.20
2019-01-02T17:03:52.160Z,88.00
2019-01-02T17:06:20.612Z,87.10
2019-01-02T17:08:49.396Z,88.50
2019-01-02T17:11:17.852Z,88.40
2019-01-02T17:13:46.341Z,88.50
2019-01-02T17:16:14.791Z,86.80
2019-01-02T17:18:43.380Z,89.00
2019-01-02T17:21:12.112Z,88.20
2019-01-02T17:23:40.648Z,88.30
2019-01-02T17:26:09.100Z,87.60
2019-01-02T17:28:37.581Z,88.10
2019-01-02T17:31:06.031Z,89.10
2019-01-02T17:33:34.853Z,89.80
2019-01-02T17:36:03.402Z,89.70
2019-01-02T17:38:31.843Z,90.20
2019-01-02T17:41:00.324Z,90.90
2019-01-02T17:43:28.773Z,90.40
2019-01-02T17:45:57.251Z,90.60
2019-01-02T17:48:25.705Z,90.70
2019-01-02T17:50:54.809Z,91.20
2019-01-02T17:53:23.283Z,91.40
2019-01-02T17:55:51.741Z,91.50
2019-01-02T17:58:20.300Z,92.00
2019-01-02T18:00:48.928Z,92.60
2019-01-02T18:03:17.475Z,92.30
2019-01-02T18:05:45.932Z,92.40
2019-01-02T18:08:14.411Z,92.70
2019-01-02T18:10:42.870Z,93.10
2019-01-02T18:13:11.323Z,92.80
2019-01-02T18:15:39.876Z,93.00
2019-01-02T18:18:08.337Z,93.00
2019-01-02T18:20:36.816Z,93.70
2019-01-02T18:23:05.276Z,93.80
2019-01-02T18:25:33.825Z,93.40
2019-01-02T18:28:02.279Z,93.80
2019-01-02T18:30:31.147Z,94.10
2019-01-02T18:32:59.708Z,93.80
2019-01-02T18:35:28.164Z,94.40
2019-01-02T18:37:56.711Z,94.30
2019-01-02T18:40:25.228Z,94.30
2019-01-02T18:42:53.708Z,94.30
2019-01-02T18:45:22.249Z,94.00
2019-01-02T18:47:50.758Z,94.00
2019-01-02T18:50:19.695Z,94.00
2019-01-02T18:52:48.704Z,93.40
2019-01-02T18:55:17.160Z,93.30
2019-01-02T18:57:45.957Z,93.60
2019-01-02T19:00:14.576Z,92.90
2019-01-02T19:02:43.023Z,93.20
2019-01-02T19:05:11.623Z,93.70
2019-01-02T19:07:40.728Z,93.50
2019-01-02T19:10:09.696Z,93.50
2019-01-02T19:12:38.220Z,93.50
2019-01-02T19:15:07.536Z,93.70
2019-01-02T19:17:35.988Z,94.40
2019-01-02T19:20:06.076Z,94.30
2019-01-02T19:22:34.527Z,94.70
2019-01-02T19:25:03.000Z,95.30
2019-01-02T19:27:31.543Z,94.80
2019-01-02T19:30:00.004Z,94.80
2019-01-02T19:32:28.547Z,95.40
2019-01-02T19:34:57.371Z,95.10
2019-01-02T19:37:25.916Z,95.20
2019-01-02T19:39:54.368Z,95.40
2019-01-02T19:42:22.839Z,95.60
2019-01-02T19:44:51.609Z,95.10
2019-01-02T19:47:20.220Z,94.20
2019-01-02T19:49:48.704Z,94.00
2019-01-02T19:52:17.236Z,94.70
2019-01-02T19:54:45.722Z,94.20
2019-01-02T19:57:14.175Z,93.80
2019-01-02T19:59:42.660Z,94.10
2019-01-02T20:02:11.113Z,94.20
2019-01-02T20:04:39.596Z,93.80
2019-01-02T20:07:08.549Z,94.10
2019-01-02T20:09:37.024Z,94.00
2019-01-02T20:12:05.484Z,94.00
2019-01-02T20:14:33.963Z,94.30
2019-01-02T20:17:02.680Z,94.20
2019-01-02T20:19:31.209Z,94.40
2019-01-02T20:21:59.688Z,94.30
2019-01-02T20:24:28.143Z,94.20
2019-01-02T20:26:56.625Z,94.40
2019-01-02T20:29:25.080Z,94.30
2019-01-02T20:31:53.566Z,94.60
2019-01-02T20:34:22.092Z,94.30
2019-01-02T20:36:50.568Z,94.40
2019-01-02T20:39:19.074Z,94.80
2019-01-02T20:41:47.780Z,94.60
2019-01-02T20:44:16.415Z,94.90
2019-01-02T20:46:44.896Z,95.30
2019-01-02T20:49:13.344Z,95.60
2019-01-02T20:51:41.823Z,96.20
2019-01-02T20:54:10.344Z,96.60
2019-01-02T20:56:38.877Z,97.30
2019-01-02T20:59:07.356Z,97.70
2019-01-02T21:01:35.908Z,98.20
2019-01-02T21:04:04.364Z,98.50
2019-01-02T21:06:32.840Z,98.70
2019-01-02T21:09:01.297Z,99.00
2019-01-02T21:11:29.856Z,99.50
2019-01-02T21:13:58.380Z,99.60
2019-01-02T21:16:26.864Z,99.50
2019-01-02T21:18:55.396Z,99.70
2019-01-02T21:21:23.848Z,99.90
2019-01-02T21:23:52.348Z,99.90
2019-01-02T21:26:20.876Z,99.90
2019-01-02T21:28:49.435Z,99.90
2019-01-02T21:31:18.245Z,99.90
2019-01-02T21:33:46.728Z,99.90
2019-01-02T21:36:15.319Z,99.90
2019-01-02T21:38:44.097Z,99.90
2019-01-02T21:41:12.733Z,99.90
2019-01-02T21:43:41.212Z,99.90
2019-01-02T21:46:09.668Z,99.90
2019-01-02T21:48:41.314Z,99.90
2019-01-02T21:51:08.503Z,99.90
2019-01-02T21:53:36.985Z,99.90
2019-01-02T21:56:05.445Z,99.90
2019-01-02T21:58:34.000Z,99.90
2019-01-02T22:01:02.508Z,99.90
2019-01-02T22:03:30.980Z,99.90
2019-01-02T22:05:59.427Z,99.90
2019-01-02T22:08:27.908Z,99.90
2019-01-02T22:10:56.367Z,99.90
2019-01-02T22:13:24.848Z,99.90
2019-01-02T22:15:53.371Z,99.90
2019-01-02T22:18:21.832Z,99.90
2019-01-02T22:20:50.387Z,99.90
2019-01-02T22:23:18.840Z,99.90
2019-01-02T22:25:47.388Z,99.90
2019-01-02T22:28:15.849Z,99.90
2019-01-02T22:30:44.328Z,99.90
2019-01-02T22:33:12.776Z,99.90
2019-01-02T22:35:41.257Z,99.90
2019-01-02T22:38:09.714Z,99.90
2019-01-02T22:40:38.549Z,99.90
2019-01-02T22:43:07.100Z,99.90
2019-01-02T22:45:35.575Z,99.90
2019-01-02T22:48:04.034Z,99.90
2019-01-02T22:50:32.920Z,99.90
2019-01-02T22:53:01.376Z,99.90
2019-01-02T22:55:29.857Z,99.90
2019-01-02T22:57:58.684Z,99.90
2019-01-02T23:00:38.248Z,99.90
2019-01-02T23:03:11.540Z,99.90
2019-01-02T23:05:50.276Z,99.90
2019-01-02T23:08:25.964Z,99.90
2019-01-02T23:10:58.833Z,99.90
2019-01-02T23:13:28.925Z,99.90
2019-01-02T23:15:59.032Z,99.90
2019-01-02T23:18:45.608Z,99.90
2019-01-02T23:21:21.708Z,99.90
2019-01-02T23:24:08.263Z,99.90
2019-01-02T23:26:54.597Z,99.90
2019-01-02T23:29:27.773Z,99.90
2019-01-02T23:32:10.073Z,99.90
2019-01-02T23:34:56.412Z,99.90
2019-01-02T23:37:26.577Z,99.90
2019-01-02T23:39:59.991Z,99.90
2019-01-02T23:42:35.916Z,99.90
2019-01-02T23:45:09.554Z,99.90
2019-01-02T23:47:42.449Z,99.90
2019-01-02T23:50:28.815Z,99.90
2019-01-02T23:53:15.411Z,99.90
2019-01-02T23:55:48.479Z,99.90
2019-01-02T23:58:35.152Z,99.90
